sensor_id;sensor_type;location;lat;lon;timestamp;temperature;humidity
51613;DHT22;37694;51.748;14.326;2023-03-24T00:01:00;23.90;43.00
51613;DHT22;37694;51.748;14.326;2023-03-24T00:03:27;23.90;43.00
51613;DHT22;37694;51.748;14.326;2023-03-24T00:05:58;23.90;43.00
51613;DHT22;37694;51.748;14.326;2023-03-24T00:08:31;23.90;43.00
51613;DHT22;37694;51.748;14.326;2023-03-24T00:11:00;23.90;43.00
51613;DHT22;37694;51.748;14.326;2023-03-24T00:13:29;23.90;43.00
51613;DHT22;37694;51.748;14.326;2023-03-24T00:15:54;23.90;43.00
51613;DHT22;37694;51.748;14.326;2023-03-24T00:18:21;23.80;43.00
51613;DHT22;37694;51.748;14.326;2023-03-24T00:20:47;23.80;42.90
51613;DHT22;37694;51.748;14.326;2023-03-24T00:23:13;23.80;42.90
51613;DHT22;37694;51.748;14.326;2023-03-24T00:25:40;23.80;43.00
51613;DHT22;37694;51.748;14.326;2023-03-24T00:28:06;23.80;43.00
51613;DHT22;37694;51.748;14.326;2023-03-24T00:30:33;23.80;43.00
51613;DHT22;37694;51.748;14.326;2023-03-24T00:33:00;23.80;43.10
51613;DHT22;37694;51.748;14.326;2023-03-24T00:35:26;23.80;43.00
51613;DHT22;37694;51.748;14.326;2023-03-24T00:37:53;23.80;42.90
51613;DHT22;37694;51.748;14.326;2023-03-24T00:40:20;23.80;43.00
51613;DHT22;37694;51.748;14.326;2023-03-24T00:42:47;23.80;42.90
51613;DHT22;37694;51.748;14.326;2023-03-24T00:45:16;23.70;42.90
51613;DHT22;37694;51.748;14.326;2023-03-24T00:47:44;23.70;43.00
51613;DHT22;37694;51.748;14.326;2023-03-24T00:50:14;23.70;43.10
51613;DHT22;37694;51.748;14.326;2023-03-24T00:52:41;23.70;42.90
51613;DHT22;37694;51.748;14.326;2023-03-24T00:55:09;23.70;42.80
51613;DHT22;37694;51.748;14.326;2023-03-24T00:57:38;23.70;42.80
51613;DHT22;37694;51.748;14.326;2023-03-24T01:00:07;23.70;42.80
51613;DHT22;37694;51.748;14.326;2023-03-24T01:02:46;23.70;42.80
51613;DHT22;37694;51.748;14.326;2023-03-24T01:05:12;23.70;42.90
51613;DHT22;37694;51.748;14.326;2023-03-24T01:07:39;23.70;43.00
51613;DHT22;37694;51.748;14.326;2023-03-24T01:10:13;23.70;43.00
51613;DHT22;37694;51.748;14.326;2023-03-24T01:12:39;23.60;42.90
51613;DHT22;37694;51.748;14.326;2023-03-24T01:15:11;23.60;43.00
51613;DHT22;37694;51.748;14.326;2023-03-24T01:17:39;23.60;42.90
51613;DHT22;37694;51.748;14.326;2023-03-24T01:20:05;23.60;42.90
51613;DHT22;37694;51.748;14.326;2023-03-24T01:22:33;23.60;42.80
51613;DHT22;37694;51.748;14.326;2023-03-24T01:25:03;23.60;42.80
51613;DHT22;37694;51.748;14.326;2023-03-24T01:27:29;23.60;42.80
51613;DHT22;37694;51.748;14.326;2023-03-24T01:29:59;23.60;42.90
51613;DHT22;37694;51.748;14.326;2023-03-24T01:32:27;23.60;42.80
51613;DHT22;37694;51.748;14.326;2023-03-24T01:34:53;23.60;42.80
51613;DHT22;37694;51.748;14.326;2023-03-24T01:37:18;23.60;42.80
51613;DHT22;37694;51.748;14.326;2023-03-24T01:39:44;23.60;42.80
51613;DHT22;37694;51.748;14.326;2023-03-24T01:42:22;23.60;42.80
51613;DHT22;37694;51.748;14.326;2023-03-24T01:44:49;23.60;42.80
51613;DHT22;37694;51.748;14.326;2023-03-24T01:47:16;23.60;42.80
51613;DHT22;37694;51.748;14.326;2023-03-24T01:49:56;23.60;42.80
51613;DHT22;37694;51.748;14.326;2023-03-24T01:52:27;23.60;42.70
51613;DHT22;37694;51.748;14.326;2023-03-24T01:54:59;23.60;42.80
51613;DHT22;37694;51.748;14.326;2023-03-24T01:57:34;23.60;42.80
51613;DHT22;37694;51.748;14.326;2023-03-24T02:00:05;23.60;42.80
51613;DHT22;37694;51.748;14.326;2023-03-24T02:02:33;23.60;42.80
51613;DHT22;37694;51.748;14.326;2023-03-24T02:05:06;23.60;42.80
51613;DHT22;37694;51.748;14.326;2023-03-24T02:10:06;23.50;42.70
51613;DHT22;37694;51.748;14.326;2023-03-24T02:12:33;23.50;42.70
51613;DHT22;37694;51.748;14.326;2023-03-24T02:14:59;23.50;42.70
51613;DHT22;37694;51.748;14.326;2023-03-24T02:18:01;23.50;42.60
51613;DHT22;37694;51.748;14.326;2023-03-24T02:20:50;23.50;42.70
51613;DHT22;37694;51.748;14.326;2023-03-24T02:36:33;23.50;42.80
51613;DHT22;37694;51.748;14.326;2023-03-24T02:48:10;23.40;42.60
51613;DHT22;37694;51.748;14.326;2023-03-24T02:59:05;23.40;42.60
51613;DHT22;37694;51.748;14.326;2023-03-24T03:04:14;23.40;42.60
51613;DHT22;37694;51.748;14.326;2023-03-24T03:06:47;23.40;42.70
51613;DHT22;37694;51.748;14.326;2023-03-24T03:09:16;23.40;42.60
51613;DHT22;37694;51.748;14.326;2023-03-24T03:11:46;23.40;42.70
51613;DHT22;37694;51.748;14.326;2023-03-24T03:14:27;23.30;42.70
51613;DHT22;37694;51.748;14.326;2023-03-24T03:17:10;23.30;42.60
51613;DHT22;37694;51.748;14.326;2023-03-24T03:19:59;23.30;42.60
51613;DHT22;37694;51.748;14.326;2023-03-24T03:22:42;23.30;42.60
51613;DHT22;37694;51.748;14.326;2023-03-24T03:25:12;23.30;42.50
51613;DHT22;37694;51.748;14.326;2023-03-24T03:27:42;23.30;42.50
51613;DHT22;37694;51.748;14.326;2023-03-24T03:32:42;23.30;42.50
51613;DHT22;37694;51.748;14.326;2023-03-24T03:37:46;23.30;42.40
51613;DHT22;37694;51.748;14.326;2023-03-24T03:40:31;23.30;42.40
51613;DHT22;37694;51.748;14.326;2023-03-24T03:42:57;23.30;42.40
51613;DHT22;37694;51.748;14.326;2023-03-24T03:45:23;23.30;42.40
51613;DHT22;37694;51.748;14.326;2023-03-24T03:47:49;23.30;42.40
51613;DHT22;37694;51.748;14.326;2023-03-24T03:50:15;23.30;42.40
51613;DHT22;37694;51.748;14.326;2023-03-24T03:52:41;23.30;42.40
51613;DHT22;37694;51.748;14.326;2023-03-24T03:55:09;23.30;42.40
51613;DHT22;37694;51.748;14.326;2023-03-24T03:57:37;23.30;42.40
51613;DHT22;37694;51.748;14.326;2023-03-24T04:00:05;23.30;42.40
51613;DHT22;37694;51.748;14.326;2023-03-24T04:05:46;23.30;42.30
51613;DHT22;37694;51.748;14.326;2023-03-24T04:14:47;23.30;42.40
51613;DHT22;37694;51.748;14.326;2023-03-24T04:23:09;23.20;42.40
51613;DHT22;37694;51.748;14.326;2023-03-24T04:26:11;23.20;42.40
51613;DHT22;37694;51.748;14.326;2023-03-24T04:31:44;23.20;42.60
51613;DHT22;37694;51.748;14.326;2023-03-24T04:34:31;23.20;42.40
51613;DHT22;37694;51.748;14.326;2023-03-24T04:37:20;23.20;42.40
51613;DHT22;37694;51.748;14.326;2023-03-24T04:39:47;23.30;42.40
51613;DHT22;37694;51.748;14.326;2023-03-24T04:42:26;23.30;42.50
51613;DHT22;37694;51.748;14.326;2023-03-24T04:44:56;23.30;42.40
51613;DHT22;37694;51.748;14.326;2023-03-24T04:47:25;23.30;42.60
51613;DHT22;37694;51.748;14.326;2023-03-24T04:50:04;23.40;42.60
51613;DHT22;37694;51.748;14.326;2023-03-24T04:52:31;23.40;42.50
51613;DHT22;37694;51.748;14.326;2023-03-24T04:54:57;23.60;42.50
51613;DHT22;37694;51.748;14.326;2023-03-24T04:57:23;23.60;42.50
51613;DHT22;37694;51.748;14.326;2023-03-24T04:59:48;23.70;42.30
51613;DHT22;37694;51.748;14.326;2023-03-24T05:02:14;23.70;42.30
51613;DHT22;37694;51.748;14.326;2023-03-24T05:04:40;23.80;42.30
51613;DHT22;37694;51.748;14.326;2023-03-24T05:07:05;23.80;42.20
51613;DHT22;37694;51.748;14.326;2023-03-24T05:09:32;23.90;42.20
51613;DHT22;37694;51.748;14.326;2023-03-24T05:11:57;23.90;42.10
51613;DHT22;37694;51.748;14.326;2023-03-24T05:14:23;23.90;42.10
51613;DHT22;37694;51.748;14.326;2023-03-24T05:16:49;23.90;42.10
51613;DHT22;37694;51.748;14.326;2023-03-24T05:19:15;23.90;42.10
51613;DHT22;37694;51.748;14.326;2023-03-24T05:21:41;23.90;42.00
51613;DHT22;37694;51.748;14.326;2023-03-24T05:24:07;23.90;42.00
51613;DHT22;37694;51.748;14.326;2023-03-24T05:26:33;24.00;42.10
51613;DHT22;37694;51.748;14.326;2023-03-24T05:28:59;23.90;42.00
51613;DHT22;37694;51.748;14.326;2023-03-24T05:31:25;23.90;42.10
51613;DHT22;37694;51.748;14.326;2023-03-24T05:33:51;23.90;42.10
51613;DHT22;37694;51.748;14.326;2023-03-24T05:36:17;23.90;42.90
51613;DHT22;37694;51.748;14.326;2023-03-24T05:38:42;23.90;42.10
51613;DHT22;37694;51.748;14.326;2023-03-24T05:41:08;23.90;42.10
51613;DHT22;37694;51.748;14.326;2023-03-24T05:43:34;23.90;42.10
51613;DHT22;37694;51.748;14.326;2023-03-24T05:45:59;23.90;42.30
51613;DHT22;37694;51.748;14.326;2023-03-24T05:48:26;23.90;42.30
51613;DHT22;37694;51.748;14.326;2023-03-24T05:50:52;23.90;42.40
51613;DHT22;37694;51.748;14.326;2023-03-24T05:53:18;23.90;42.40
51613;DHT22;37694;51.748;14.326;2023-03-24T05:55:47;23.90;42.40
51613;DHT22;37694;51.748;14.326;2023-03-24T05:58:12;23.90;42.60
51613;DHT22;37694;51.748;14.326;2023-03-24T06:00:40;23.90;42.50
51613;DHT22;37694;51.748;14.326;2023-03-24T06:03:05;23.90;42.60
51613;DHT22;37694;51.748;14.326;2023-03-24T06:05:31;23.90;42.60
51613;DHT22;37694;51.748;14.326;2023-03-24T06:07:57;23.90;42.70
51613;DHT22;37694;51.748;14.326;2023-03-24T06:10:24;23.90;42.80
51613;DHT22;37694;51.748;14.326;2023-03-24T06:12:51;23.90;43.10
51613;DHT22;37694;51.748;14.326;2023-03-24T06:15:17;23.90;43.00
51613;DHT22;37694;51.748;14.326;2023-03-24T06:17:43;23.90;43.40
51613;DHT22;37694;51.748;14.326;2023-03-24T06:20:12;23.90;43.40
51613;DHT22;37694;51.748;14.326;2023-03-24T06:22:41;23.90;43.20
51613;DHT22;37694;51.748;14.326;2023-03-24T06:25:09;23.90;43.10
51613;DHT22;37694;51.748;14.326;2023-03-24T06:27:35;23.90;43.00
51613;DHT22;37694;51.748;14.326;2023-03-24T06:30:01;23.90;42.90
51613;DHT22;37694;51.748;14.326;2023-03-24T06:32:27;23.90;42.70
51613;DHT22;37694;51.748;14.326;2023-03-24T06:34:53;23.90;42.80
51613;DHT22;37694;51.748;14.326;2023-03-24T06:37:22;23.90;42.90
51613;DHT22;37694;51.748;14.326;2023-03-24T06:39:48;23.80;42.80
51613;DHT22;37694;51.748;14.326;2023-03-24T06:42:15;23.80;43.00
51613;DHT22;37694;51.748;14.326;2023-03-24T06:44:41;23.80;43.00
51613;DHT22;37694;51.748;14.326;2023-03-24T06:47:06;23.80;43.00
51613;DHT22;37694;51.748;14.326;2023-03-24T06:49:32;23.80;43.10
51613;DHT22;37694;51.748;14.326;2023-03-24T06:51:59;23.80;43.80
51613;DHT22;37694;51.748;14.326;2023-03-24T06:54:26;23.90;46.30
51613;DHT22;37694;51.748;14.326;2023-03-24T06:56:51;23.90;46.60
51613;DHT22;37694;51.748;14.326;2023-03-24T06:59:17;24.00;47.00
51613;DHT22;37694;51.748;14.326;2023-03-24T07:01:51;24.10;47.40
51613;DHT22;37694;51.748;14.326;2023-03-24T07:04:18;24.10;47.10
51613;DHT22;37694;51.748;14.326;2023-03-24T07:06:43;24.10;47.80
51613;DHT22;37694;51.748;14.326;2023-03-24T07:09:10;24.20;47.30
51613;DHT22;37694;51.748;14.326;2023-03-24T07:11:37;24.20;47.70
51613;DHT22;37694;51.748;14.326;2023-03-24T07:14:03;24.20;47.60
51613;DHT22;37694;51.748;14.326;2023-03-24T07:16:29;24.20;47.40
51613;DHT22;37694;51.748;14.326;2023-03-24T07:18:54;24.20;47.90
51613;DHT22;37694;51.748;14.326;2023-03-24T07:21:21;24.20;47.80
51613;DHT22;37694;51.748;14.326;2023-03-24T07:23:47;24.20;47.80
51613;DHT22;37694;51.748;14.326;2023-03-24T07:26:13;24.20;47.80
51613;DHT22;37694;51.748;14.326;2023-03-24T07:28:38;24.20;47.70
51613;DHT22;37694;51.748;14.326;2023-03-24T07:31:05;24.20;47.50
51613;DHT22;37694;51.748;14.326;2023-03-24T07:33:35;24.20;47.50
51613;DHT22;37694;51.748;14.326;2023-03-24T07:36:02;24.20;47.30
51613;DHT22;37694;51.748;14.326;2023-03-24T07:38:27;24.20;46.90
51613;DHT22;37694;51.748;14.326;2023-03-24T07:40:53;24.20;46.80
51613;DHT22;37694;51.748;14.326;2023-03-24T07:43:19;24.20;46.90
51613;DHT22;37694;51.748;14.326;2023-03-24T07:45:45;24.20;46.70
51613;DHT22;37694;51.748;14.326;2023-03-24T07:48:11;24.20;46.20
51613;DHT22;37694;51.748;14.326;2023-03-24T07:50:37;24.20;46.70
51613;DHT22;37694;51.748;14.326;2023-03-24T07:53:02;24.20;46.50
51613;DHT22;37694;51.748;14.326;2023-03-24T07:55:28;24.20;46.70
51613;DHT22;37694;51.748;14.326;2023-03-24T07:57:54;24.20;46.40
51613;DHT22;37694;51.748;14.326;2023-03-24T08:00:20;24.20;46.10
51613;DHT22;37694;51.748;14.326;2023-03-24T08:02:51;24.20;46.30
51613;DHT22;37694;51.748;14.326;2023-03-24T08:05:18;24.20;45.90
51613;DHT22;37694;51.748;14.326;2023-03-24T08:07:47;24.20;46.00
51613;DHT22;37694;51.748;14.326;2023-03-24T08:10:25;24.20;46.10
51613;DHT22;37694;51.748;14.326;2023-03-24T08:12:51;24.20;46.10
51613;DHT22;37694;51.748;14.326;2023-03-24T08:15:17;24.20;46.20
51613;DHT22;37694;51.748;14.326;2023-03-24T08:17:43;24.20;46.10
51613;DHT22;37694;51.748;14.326;2023-03-24T08:20:10;24.20;46.10
51613;DHT22;37694;51.748;14.326;2023-03-24T08:22:43;24.20;46.00
51613;DHT22;37694;51.748;14.326;2023-03-24T08:25:10;24.20;45.90
51613;DHT22;37694;51.748;14.326;2023-03-24T08:27:38;24.20;45.90
51613;DHT22;37694;51.748;14.326;2023-03-24T08:30:08;24.20;46.00
51613;DHT22;37694;51.748;14.326;2023-03-24T08:32:43;24.20;45.70
51613;DHT22;37694;51.748;14.326;2023-03-24T08:35:11;24.20;45.40
51613;DHT22;37694;51.748;14.326;2023-03-24T08:37:39;24.20;45.20
51613;DHT22;37694;51.748;14.326;2023-03-24T08:40:08;24.20;45.40
51613;DHT22;37694;51.748;14.326;2023-03-24T08:42:39;24.30;45.40
51613;DHT22;37694;51.748;14.326;2023-03-24T08:45:06;24.30;45.60
51613;DHT22;37694;51.748;14.326;2023-03-24T08:47:33;24.30;45.50
51613;DHT22;37694;51.748;14.326;2023-03-24T08:49:58;24.30;45.70
51613;DHT22;37694;51.748;14.326;2023-03-24T08:52:24;24.30;45.50
51613;DHT22;37694;51.748;14.326;2023-03-24T08:54:51;24.30;45.60
51613;DHT22;37694;51.748;14.326;2023-03-24T08:57:16;24.30;45.30
51613;DHT22;37694;51.748;14.326;2023-03-24T08:59:43;24.30;45.40
51613;DHT22;37694;51.748;14.326;2023-03-24T09:02:12;24.30;45.30
51613;DHT22;37694;51.748;14.326;2023-03-24T09:04:38;24.30;45.40
51613;DHT22;37694;51.748;14.326;2023-03-24T09:07:04;24.30;45.20
51613;DHT22;37694;51.748;14.326;2023-03-24T09:09:31;24.30;45.20
51613;DHT22;37694;51.748;14.326;2023-03-24T09:11:57;24.30;44.90
51613;DHT22;37694;51.748;14.326;2023-03-24T09:14:23;24.30;44.80
51613;DHT22;37694;51.748;14.326;2023-03-24T09:16:49;24.30;45.00
51613;DHT22;37694;51.748;14.326;2023-03-24T09:19:15;24.30;44.60
51613;DHT22;37694;51.748;14.326;2023-03-24T09:21:44;24.30;44.70
51613;DHT22;37694;51.748;14.326;2023-03-24T09:24:11;24.30;44.90
51613;DHT22;37694;51.748;14.326;2023-03-24T09:26:37;24.30;44.90
51613;DHT22;37694;51.748;14.326;2023-03-24T09:29:03;24.30;44.50
51613;DHT22;37694;51.748;14.326;2023-03-24T09:31:29;24.30;44.30
51613;DHT22;37694;51.748;14.326;2023-03-24T09:33:55;24.30;44.70
51613;DHT22;37694;51.748;14.326;2023-03-24T09:36:20;24.30;44.90
51613;DHT22;37694;51.748;14.326;2023-03-24T09:38:46;24.30;44.70
51613;DHT22;37694;51.748;14.326;2023-03-24T09:41:24;24.30;44.60
51613;DHT22;37694;51.748;14.326;2023-03-24T09:44:01;24.30;44.30
51613;DHT22;37694;51.748;14.326;2023-03-24T09:46:37;24.30;44.30
51613;DHT22;37694;51.748;14.326;2023-03-24T09:49:04;24.40;44.50
51613;DHT22;37694;51.748;14.326;2023-03-24T09:51:41;24.40;44.50
51613;DHT22;37694;51.748;14.326;2023-03-24T09:54:13;24.40;44.30
51613;DHT22;37694;51.748;14.326;2023-03-24T09:56:44;24.40;44.30
51613;DHT22;37694;51.748;14.326;2023-03-24T09:59:35;24.40;44.40
51613;DHT22;37694;51.748;14.326;2023-03-24T10:02:13;24.50;44.40
51613;DHT22;37694;51.748;14.326;2023-03-24T10:04:40;24.50;44.40
51613;DHT22;37694;51.748;14.326;2023-03-24T10:07:21;24.50;44.10
51613;DHT22;37694;51.748;14.326;2023-03-24T10:09:55;24.50;44.00
51613;DHT22;37694;51.748;14.326;2023-03-24T10:12:38;24.50;43.90
51613;DHT22;37694;51.748;14.326;2023-03-24T10:17:56;24.50;43.70
51613;DHT22;37694;51.748;14.326;2023-03-24T10:20:32;24.50;44.20
51613;DHT22;37694;51.748;14.326;2023-03-24T10:26:08;24.60;44.00
51613;DHT22;37694;51.748;14.326;2023-03-24T10:31:15;24.60;44.20
51613;DHT22;37694;51.748;14.326;2023-03-24T10:33:43;24.60;44.20
51613;DHT22;37694;51.748;14.326;2023-03-24T10:36:13;24.60;44.50
51613;DHT22;37694;51.748;14.326;2023-03-24T10:38:40;24.60;44.50
51613;DHT22;37694;51.748;14.326;2023-03-24T10:41:06;24.70;44.60
51613;DHT22;37694;51.748;14.326;2023-03-24T10:43:37;24.70;44.60
51613;DHT22;37694;51.748;14.326;2023-03-24T10:46:03;24.70;44.50
51613;DHT22;37694;51.748;14.326;2023-03-24T10:48:46;24.70;44.50
51613;DHT22;37694;51.748;14.326;2023-03-24T10:51:29;24.80;44.50
51613;DHT22;37694;51.748;14.326;2023-03-24T10:54:11;24.80;44.30
51613;DHT22;37694;51.748;14.326;2023-03-24T10:57:12;24.90;44.40
51613;DHT22;37694;51.748;14.326;2023-03-24T10:59:53;24.90;44.10
51613;DHT22;37694;51.748;14.326;2023-03-24T11:02:30;25.00;44.10
51613;DHT22;37694;51.748;14.326;2023-03-24T11:05:19;25.00;43.80
51613;DHT22;37694;51.748;14.326;2023-03-24T11:07:46;25.10;43.80
51613;DHT22;37694;51.748;14.326;2023-03-24T11:10:15;25.00;43.30
51613;DHT22;37694;51.748;14.326;2023-03-24T11:12:59;24.90;42.50
51613;DHT22;37694;51.748;14.326;2023-03-24T11:15:33;24.80;41.80
51613;DHT22;37694;51.748;14.326;2023-03-24T11:20:38;24.60;41.30
51613;DHT22;37694;51.748;14.326;2023-03-24T11:26:21;24.50;41.30
51613;DHT22;37694;51.748;14.326;2023-03-24T11:28:56;24.50;41.70
51613;DHT22;37694;51.748;14.326;2023-03-24T11:31:30;24.40;41.80
51613;DHT22;37694;51.748;14.326;2023-03-24T11:36:38;24.50;41.70
51613;DHT22;37694;51.748;14.326;2023-03-24T11:39:20;24.60;41.80
51613;DHT22;37694;51.748;14.326;2023-03-24T11:42:05;24.60;42.50
51613;DHT22;37694;51.748;14.326;2023-03-24T11:47:31;24.60;42.10
51613;DHT22;37694;51.748;14.326;2023-03-24T11:52:45;24.60;42.10
51613;DHT22;37694;51.748;14.326;2023-03-24T11:55:17;24.70;42.20
51613;DHT22;37694;51.748;14.326;2023-03-24T11:57:59;24.70;42.40
51613;DHT22;37694;51.748;14.326;2023-03-24T12:00:32;24.70;42.10
51613;DHT22;37694;51.748;14.326;2023-03-24T12:05:45;24.70;42.20
51613;DHT22;37694;51.748;14.326;2023-03-24T12:13:40;24.70;42.20
51613;DHT22;37694;51.748;14.326;2023-03-24T12:19:37;24.70;41.80
51613;DHT22;37694;51.748;14.326;2023-03-24T12:30:58;24.70;42.00
51613;DHT22;37694;51.748;14.326;2023-03-24T12:36:53;24.80;41.70
51613;DHT22;37694;51.748;14.326;2023-03-24T12:39:28;24.80;42.00
51613;DHT22;37694;51.748;14.326;2023-03-24T12:45:02;24.80;41.90
51613;DHT22;37694;51.748;14.326;2023-03-24T12:50:19;24.70;41.80
51613;DHT22;37694;51.748;14.326;2023-03-24T12:53:06;24.70;41.70
51613;DHT22;37694;51.748;14.326;2023-03-24T12:55:45;24.70;41.60
51613;DHT22;37694;51.748;14.326;2023-03-24T13:03:54;24.70;41.50
51613;DHT22;37694;51.748;14.326;2023-03-24T13:06:44;24.60;41.50
51613;DHT22;37694;51.748;14.326;2023-03-24T13:17:44;24.50;41.70
51613;DHT22;37694;51.748;14.326;2023-03-24T13:32:04;24.50;41.90
51613;DHT22;37694;51.748;14.326;2023-03-24T13:34:34;24.50;42.00
51613;DHT22;37694;51.748;14.326;2023-03-24T13:37:13;24.40;42.00
51613;DHT22;37694;51.748;14.326;2023-03-24T13:39:42;24.40;42.00
51613;DHT22;37694;51.748;14.326;2023-03-24T13:42:30;24.40;42.00
51613;DHT22;37694;51.748;14.326;2023-03-24T13:44:59;24.40;42.00
51613;DHT22;37694;51.748;14.326;2023-03-24T13:47:25;24.40;42.10
51613;DHT22;37694;51.748;14.326;2023-03-24T13:50:03;24.40;42.10
51613;DHT22;37694;51.748;14.326;2023-03-24T13:52:42;24.30;42.00
51613;DHT22;37694;51.748;14.326;2023-03-24T13:55:25;24.40;42.10
51613;DHT22;37694;51.748;14.326;2023-03-24T13:58:12;24.30;42.10
51613;DHT22;37694;51.748;14.326;2023-03-24T14:03:38;24.30;42.40
51613;DHT22;37694;51.748;14.326;2023-03-24T14:06:06;24.30;42.60
51613;DHT22;37694;51.748;14.326;2023-03-24T14:19:31;24.30;42.90
51613;DHT22;37694;51.748;14.326;2023-03-24T14:24:29;24.30;43.10
51613;DHT22;37694;51.748;14.326;2023-03-24T14:26:57;24.30;43.20
51613;DHT22;37694;51.748;14.326;2023-03-24T14:29:40;24.30;43.50
51613;DHT22;37694;51.748;14.326;2023-03-24T14:32:16;24.30;43.60
51613;DHT22;37694;51.748;14.326;2023-03-24T14:34:57;24.20;43.60
51613;DHT22;37694;51.748;14.326;2023-03-24T14:37:25;24.30;43.90
51613;DHT22;37694;51.748;14.326;2023-03-24T14:39:53;24.20;44.10
51613;DHT22;37694;51.748;14.326;2023-03-24T14:47:32;24.20;44.30
51613;DHT22;37694;51.748;14.326;2023-03-24T14:50:01;24.20;44.30
51613;DHT22;37694;51.748;14.326;2023-03-24T14:52:39;24.20;44.50
51613;DHT22;37694;51.748;14.326;2023-03-24T14:55:14;24.20;44.50
51613;DHT22;37694;51.748;14.326;2023-03-24T14:57:51;24.20;44.60
51613;DHT22;37694;51.748;14.326;2023-03-24T15:00:32;24.20;45.00
51613;DHT22;37694;51.748;14.326;2023-03-24T15:03:15;24.20;44.90
51613;DHT22;37694;51.748;14.326;2023-03-24T15:05:42;24.20;45.10
51613;DHT22;37694;51.748;14.326;2023-03-24T15:10:49;24.20;45.40
51613;DHT22;37694;51.748;14.326;2023-03-24T15:16:22;24.20;45.30
51613;DHT22;37694;51.748;14.326;2023-03-24T15:18:59;24.10;45.10
51613;DHT22;37694;51.748;14.326;2023-03-24T15:21:40;24.20;45.30
51613;DHT22;37694;51.748;14.326;2023-03-24T15:26:49;24.10;45.60
51613;DHT22;37694;51.748;14.326;2023-03-24T15:29:17;24.10;45.90
51613;DHT22;37694;51.748;14.326;2023-03-24T15:31:42;24.10;45.70
51613;DHT22;37694;51.748;14.326;2023-03-24T15:34:27;24.10;45.90
51613;DHT22;37694;51.748;14.326;2023-03-24T15:36:58;24.10;45.90
51613;DHT22;37694;51.748;14.326;2023-03-24T15:39:27;24.10;46.00
51613;DHT22;37694;51.748;14.326;2023-03-24T15:41:53;24.10;46.30
51613;DHT22;37694;51.748;14.326;2023-03-24T15:44:22;24.10;46.20
51613;DHT22;37694;51.748;14.326;2023-03-24T15:46:48;24.20;46.10
51613;DHT22;37694;51.748;14.326;2023-03-24T15:49:32;24.10;46.10
51613;DHT22;37694;51.748;14.326;2023-03-24T15:52:21;24.20;46.10
51613;DHT22;37694;51.748;14.326;2023-03-24T15:54:47;24.10;46.30
51613;DHT22;37694;51.748;14.326;2023-03-24T15:57:24;24.10;46.80
51613;DHT22;37694;51.748;14.326;2023-03-24T16:02:34;24.10;46.60
51613;DHT22;37694;51.748;14.326;2023-03-24T16:05:29;24.10;46.60
51613;DHT22;37694;51.748;14.326;2023-03-24T16:13:20;24.10;46.90
51613;DHT22;37694;51.748;14.326;2023-03-24T16:15:56;24.10;47.00
51613;DHT22;37694;51.748;14.326;2023-03-24T16:18:32;24.10;47.90
51613;DHT22;37694;51.748;14.326;2023-03-24T16:21:04;24.10;48.00
51613;DHT22;37694;51.748;14.326;2023-03-24T16:23:33;24.10;47.80
51613;DHT22;37694;51.748;14.326;2023-03-24T16:25:59;24.10;47.40
51613;DHT22;37694;51.748;14.326;2023-03-24T16:28:25;24.10;47.50
51613;DHT22;37694;51.748;14.326;2023-03-24T16:31:00;24.10;47.30
51613;DHT22;37694;51.748;14.326;2023-03-24T16:33:27;24.10;46.60
51613;DHT22;37694;51.748;14.326;2023-03-24T16:35:54;24.10;46.90
51613;DHT22;37694;51.748;14.326;2023-03-24T16:38:20;24.10;46.70
51613;DHT22;37694;51.748;14.326;2023-03-24T16:40:54;24.10;47.10
51613;DHT22;37694;51.748;14.326;2023-03-24T16:43:20;24.10;47.40
51613;DHT22;37694;51.748;14.326;2023-03-24T16:45:48;24.10;47.70
51613;DHT22;37694;51.748;14.326;2023-03-24T16:48:14;24.10;47.20
51613;DHT22;37694;51.748;14.326;2023-03-24T16:50:43;24.10;47.10
51613;DHT22;37694;51.748;14.326;2023-03-24T16:53:08;24.10;47.90
51613;DHT22;37694;51.748;14.326;2023-03-24T16:55:35;24.10;47.70
51613;DHT22;37694;51.748;14.326;2023-03-24T16:58:02;24.10;47.80
51613;DHT22;37694;51.748;14.326;2023-03-24T17:00:28;24.10;47.40
51613;DHT22;37694;51.748;14.326;2023-03-24T17:02:55;24.10;47.90
51613;DHT22;37694;51.748;14.326;2023-03-24T17:05:26;24.10;48.10
51613;DHT22;37694;51.748;14.326;2023-03-24T17:07:56;24.10;47.40
51613;DHT22;37694;51.748;14.326;2023-03-24T17:10:23;24.10;46.30
51613;DHT22;37694;51.748;14.326;2023-03-24T17:12:49;24.10;47.40
51613;DHT22;37694;51.748;14.326;2023-03-24T17:15:21;24.10;47.80
51613;DHT22;37694;51.748;14.326;2023-03-24T17:17:48;24.10;47.30
51613;DHT22;37694;51.748;14.326;2023-03-24T17:20:14;24.10;47.00
51613;DHT22;37694;51.748;14.326;2023-03-24T17:22:42;24.10;46.90
51613;DHT22;37694;51.748;14.326;2023-03-24T17:25:10;24.10;46.90
51613;DHT22;37694;51.748;14.326;2023-03-24T17:27:36;24.10;47.20
51613;DHT22;37694;51.748;14.326;2023-03-24T17:30:02;24.10;47.00
51613;DHT22;37694;51.748;14.326;2023-03-24T17:32:32;24.10;47.40
51613;DHT22;37694;51.748;14.326;2023-03-24T17:34:58;24.10;47.00
51613;DHT22;37694;51.748;14.326;2023-03-24T17:37:27;24.10;46.70
51613;DHT22;37694;51.748;14.326;2023-03-24T17:39:52;24.10;46.80
51613;DHT22;37694;51.748;14.326;2023-03-24T17:42:20;24.10;46.60
51613;DHT22;37694;51.748;14.326;2023-03-24T17:44:46;24.10;46.90
51613;DHT22;37694;51.748;14.326;2023-03-24T17:47:12;24.10;47.10
51613;DHT22;37694;51.748;14.326;2023-03-24T17:49:38;24.10;47.00
51613;DHT22;37694;51.748;14.326;2023-03-24T17:52:03;24.10;46.70
51613;DHT22;37694;51.748;14.326;2023-03-24T17:54:29;24.10;47.10
51613;DHT22;37694;51.748;14.326;2023-03-24T17:56:55;24.10;46.80
51613;DHT22;37694;51.748;14.326;2023-03-24T17:59:20;24.10;47.10
51613;DHT22;37694;51.748;14.326;2023-03-24T18:01:46;24.10;47.10
51613;DHT22;37694;51.748;14.326;2023-03-24T18:04:12;24.10;47.40
51613;DHT22;37694;51.748;14.326;2023-03-24T18:06:38;24.10;47.60
51613;DHT22;37694;51.748;14.326;2023-03-24T18:09:06;24.10;47.80
51613;DHT22;37694;51.748;14.326;2023-03-24T18:11:33;24.10;46.90
51613;DHT22;37694;51.748;14.326;2023-03-24T18:13:59;24.20;47.00
51613;DHT22;37694;51.748;14.326;2023-03-24T18:16:24;24.10;47.00
51613;DHT22;37694;51.748;14.326;2023-03-24T18:18:54;24.20;46.90
51613;DHT22;37694;51.748;14.326;2023-03-24T18:21:20;24.20;46.80
51613;DHT22;37694;51.748;14.326;2023-03-24T18:23:47;24.20;47.00
51613;DHT22;37694;51.748;14.326;2023-03-24T18:26:14;24.20;47.20
51613;DHT22;37694;51.748;14.326;2023-03-24T18:28:40;24.20;47.30